sensor_id;sensor_type;location;lat;lon;timestamp;P1;durP1;ratioP1;P2;durP2;ratioP2
66112;SDS011;52893;52.870;5.822;2023-02-03T00:02:04;8.80;;;1.50;;
66112;SDS011;52893;52.870;5.822;2023-02-03T00:04:31;7.47;;;1.42;;
66112;SDS011;52893;52.870;5.822;2023-02-03T00:06:58;13.07;;;1.48;;
66112;SDS011;52893;52.870;5.822;2023-02-03T00:09:25;3.25;;;1.02;;
66112;SDS011;52893;52.870;5.822;2023-02-03T00:11:52;5.47;;;1.20;;
66112;SDS011;52893;52.870;5.822;2023-02-03T00:14:20;5.50;;;1.23;;
66112;SDS011;52893;52.870;5.822;2023-02-03T00:16:48;5.35;;;1.25;;
66112;SDS011;52893;52.870;5.822;2023-02-03T00:19:15;4.13;;;1.02;;
66112;SDS011;52893;52.870;5.822;2023-02-03T00:21:43;8.57;;;1.33;;
66112;SDS011;52893;52.870;5.822;2023-02-03T00:24:10;8.75;;;1.25;;
66112;SDS011;52893;52.870;5.822;2023-02-03T00:26:39;9.45;;;1.48;;
66112;SDS011;52893;52.870;5.822;2023-02-03T00:29:07;7.93;;;1.30;;
66112;SDS011;52893;52.870;5.822;2023-02-03T00:31:35;5.20;;;1.20;;
66112;SDS011;52893;52.870;5.822;2023-02-03T00:34:03;8.30;;;2.03;;
66112;SDS011;52893;52.870;5.822;2023-02-03T00:36:30;10.10;;;1.80;;
66112;SDS011;52893;52.870;5.822;2023-02-03T00:38:59;4.93;;;1.00;;
66112;SDS011;52893;52.870;5.822;2023-02-03T00:41:27;8.52;;;1.42;;
66112;SDS011;52893;52.870;5.822;2023-02-03T00:43:55;9.45;;;1.50;;
66112;SDS011;52893;52.870;5.822;2023-02-03T00:46:22;7.03;;;1.15;;
66112;SDS011;52893;52.870;5.822;2023-02-03T00:48:50;5.90;;;1.48;;
66112;SDS011;52893;52.870;5.822;2023-02-03T00:51:18;5.93;;;1.35;;
66112;SDS011;52893;52.870;5.822;2023-02-03T00:53:46;7.25;;;1.30;;
66112;SDS011;52893;52.870;5.822;2023-02-03T00:56:13;7.90;;;2.17;;
66112;SDS011;52893;52.870;5.822;2023-02-03T00:58:40;10.05;;;1.30;;
66112;SDS011;52893;52.870;5.822;2023-02-03T01:01:08;3.13;;;0.70;;
66112;SDS011;52893;52.870;5.822;2023-02-03T01:03:36;9.88;;;1.75;;
66112;SDS011;52893;52.870;5.822;2023-02-03T01:06:07;7.43;;;1.38;;
66112;SDS011;52893;52.870;5.822;2023-02-03T01:08:36;14.07;;;1.55;;
66112;SDS011;52893;52.870;5.822;2023-02-03T01:11:05;6.15;;;1.10;;
66112;SDS011;52893;52.870;5.822;2023-02-03T01:13:33;15.10;;;2.28;;
66112;SDS011;52893;52.870;5.822;2023-02-03T01:16:01;6.40;;;1.27;;
66112;SDS011;52893;52.870;5.822;2023-02-03T01:18:28;8.57;;;1.80;;
66112;SDS011;52893;52.870;5.822;2023-02-03T01:20:55;4.22;;;0.90;;
66112;SDS011;52893;52.870;5.822;2023-02-03T01:23:25;5.95;;;1.88;;
66112;SDS011;52893;52.870;5.822;2023-02-03T01:25:53;2.63;;;0.85;;
66112;SDS011;52893;52.870;5.822;2023-02-03T01:28:20;8.55;;;1.02;;
66112;SDS011;52893;52.870;5.822;2023-02-03T01:30:47;2.85;;;0.77;;
66112;SDS011;52893;52.870;5.822;2023-02-03T01:33:15;5.18;;;0.88;;
66112;SDS011;52893;52.870;5.822;2023-02-03T01:35:42;7.60;;;1.33;;
66112;SDS011;52893;52.870;5.822;2023-02-03T01:38:09;4.30;;;0.82;;
66112;SDS011;52893;52.870;5.822;2023-02-03T01:40:41;8.57;;;1.27;;
66112;SDS011;52893;52.870;5.822;2023-02-03T01:43:10;11.48;;;1.15;;
66112;SDS011;52893;52.870;5.822;2023-02-03T01:45:37;6.85;;;1.23;;
66112;SDS011;52893;52.870;5.822;2023-02-03T01:48:06;5.10;;;0.90;;
66112;SDS011;52893;52.870;5.822;2023-02-03T01:50:34;9.38;;;1.25;;
66112;SDS011;52893;52.870;5.822;2023-02-03T01:53:06;4.35;;;0.98;;
66112;SDS011;52893;52.870;5.822;2023-02-03T01:55:38;11.25;;;1.40;;
66112;SDS011;52893;52.870;5.822;2023-02-03T01:58:10;7.50;;;1.48;;
66112;SDS011;52893;52.870;5.822;2023-02-03T02:00:41;5.63;;;1.30;;
66112;SDS011;52893;52.870;5.822;2023-02-03T02:03:09;8.77;;;0.98;;
66112;SDS011;52893;52.870;5.822;2023-02-03T02:05:39;5.45;;;1.35;;
66112;SDS011;52893;52.870;5.822;2023-02-03T02:08:11;7.45;;;1.42;;
66112;SDS011;52893;52.870;5.822;2023-02-03T02:10:40;4.80;;;1.55;;
66112;SDS011;52893;52.870;5.822;2023-02-03T02:13:09;6.93;;;1.00;;
66112;SDS011;52893;52.870;5.822;2023-02-03T02:15:41;2.90;;;1.00;;
66112;SDS011;52893;52.870;5.822;2023-02-03T02:18:28;5.95;;;0.85;;
66112;SDS011;52893;52.870;5.822;2023-02-03T02:21:15;3.95;;;1.23;;
66112;SDS011;52893;52.870;5.822;2023-02-03T02:24:10;8.15;;;1.15;;
66112;SDS011;52893;52.870;5.822;2023-02-03T02:26:53;6.13;;;1.00;;
66112;SDS011;52893;52.870;5.822;2023-02-03T02:32:28;9.55;;;1.23;;
66112;SDS011;52893;52.870;5.822;2023-02-03T02:35:03;8.27;;;1.33;;
66112;SDS011;52893;52.870;5.822;2023-02-03T02:37:42;8.93;;;1.35;;
66112;SDS011;52893;52.870;5.822;2023-02-03T02:40:18;13.68;;;1.00;;
66112;SDS011;52893;52.870;5.822;2023-02-03T02:42:55;11.63;;;1.08;;
66112;SDS011;52893;52.870;5.822;2023-02-03T02:45:30;6.60;;;1.02;;
66112;SDS011;52893;52.870;5.822;2023-02-03T02:48:05;7.13;;;1.33;;
66112;SDS011;52893;52.870;5.822;2023-02-03T02:50:37;6.53;;;1.13;;
66112;SDS011;52893;52.870;5.822;2023-02-03T02:53:08;3.33;;;1.23;;
66112;SDS011;52893;52.870;5.822;2023-02-03T02:55:39;1.90;;;0.90;;
66112;SDS011;52893;52.870;5.822;2023-02-03T02:58:10;3.15;;;1.15;;
66112;SDS011;52893;52.870;5.822;2023-02-03T03:00:43;7.50;;;0.93;;
66112;SDS011;52893;52.870;5.822;2023-02-03T03:03:13;17.52;;;2.13;;
66112;SDS011;52893;52.870;5.822;2023-02-03T03:05:43;5.82;;;0.70;;
66112;SDS011;52893;52.870;5.822;2023-02-03T03:08:17;2.85;;;0.80;;
66112;SDS011;52893;52.870;5.822;2023-02-03T03:10:48;2.95;;;1.20;;
66112;SDS011;52893;52.870;5.822;2023-02-03T03:13:19;13.77;;;1.50;;
66112;SDS011;52893;52.870;5.822;2023-02-03T03:15:50;6.65;;;1.27;;
66112;SDS011;52893;52.870;5.822;2023-02-03T03:18:21;2.55;;;0.93;;
66112;SDS011;52893;52.870;5.822;2023-02-03T03:20:54;8.57;;;1.10;;
66112;SDS011;52893;52.870;5.822;2023-02-03T03:23:31;9.38;;;1.40;;
66112;SDS011;52893;52.870;5.822;2023-02-03T03:26:03;13.98;;;1.75;;
66112;SDS011;52893;52.870;5.822;2023-02-03T03:28:48;2.78;;;0.77;;
66112;SDS011;52893;52.870;5.822;2023-02-03T03:31:18;16.98;;;1.55;;
66112;SDS011;52893;52.870;5.822;2023-02-03T03:33:47;6.70;;;1.33;;
66112;SDS011;52893;52.870;5.822;2023-02-03T03:36:18;10.27;;;0.90;;
66112;SDS011;52893;52.870;5.822;2023-02-03T03:38:52;5.43;;;0.98;;
66112;SDS011;52893;52.870;5.822;2023-02-03T03:41:24;17.33;;;1.73;;
66112;SDS011;52893;52.870;5.822;2023-02-03T03:43:56;7.65;;;1.13;;
66112;SDS011;52893;52.870;5.822;2023-02-03T03:46:28;8.55;;;1.20;;
66112;SDS011;52893;52.870;5.822;2023-02-03T03:49:01;4.07;;;0.85;;
66112;SDS011;52893;52.870;5.822;2023-02-03T03:51:32;15.80;;;1.58;;
66112;SDS011;52893;52.870;5.822;2023-02-03T03:54:02;6.63;;;0.90;;
66112;SDS011;52893;52.870;5.822;2023-02-03T03:56:34;7.20;;;1.53;;
66112;SDS011;52893;52.870;5.822;2023-02-03T03:59:05;6.17;;;1.53;;
66112;SDS011;52893;52.870;5.822;2023-02-03T04:01:37;3.05;;;0.90;;
66112;SDS011;52893;52.870;5.822;2023-02-03T04:04:06;5.55;;;1.48;;
66112;SDS011;52893;52.870;5.822;2023-02-03T04:06:36;8.65;;;1.15;;
66112;SDS011;52893;52.870;5.822;2023-02-03T04:09:04;5.80;;;1.02;;
66112;SDS011;52893;52.870;5.822;2023-02-03T04:11:32;10.38;;;1.15;;
66112;SDS011;52893;52.870;5.822;2023-02-03T04:14:17;10.40;;;1.42;;
66112;SDS011;52893;52.870;5.822;2023-02-03T04:16:44;4.60;;;1.20;;
66112;SDS011;52893;52.870;5.822;2023-02-03T04:19:12;11.70;;;1.35;;
66112;SDS011;52893;52.870;5.822;2023-02-03T04:21:40;9.82;;;0.95;;
66112;SDS011;52893;52.870;5.822;2023-02-03T04:24:07;8.57;;;1.27;;
66112;SDS011;52893;52.870;5.822;2023-02-03T04:26:34;5.40;;;1.10;;
66112;SDS011;52893;52.870;5.822;2023-02-03T04:29:01;2.20;;;0.73;;
66112;SDS011;52893;52.870;5.822;2023-02-03T04:31:29;4.95;;;1.17;;
66112;SDS011;52893;52.870;5.822;2023-02-03T04:33:56;6.43;;;0.90;;
66112;SDS011;52893;52.870;5.822;2023-02-03T04:36:25;5.00;;;1.17;;
66112;SDS011;52893;52.870;5.822;2023-02-03T04:38:52;3.65;;;0.75;;
66112;SDS011;52893;52.870;5.822;2023-02-03T04:41:19;13.00;;;1.50;;
66112;SDS011;52893;52.870;5.822;2023-02-03T04:43:46;12.30;;;1.35;;
66112;SDS011;52893;52.870;5.822;2023-02-03T04:46:14;6.60;;;0.60;;
66112;SDS011;52893;52.870;5.822;2023-02-03T04:48:41;7.80;;;1.65;;
66112;SDS011;52893;52.870;5.822;2023-02-03T04:51:08;12.18;;;1.70;;
66112;SDS011;52893;52.870;5.822;2023-02-03T04:53:36;21.60;;;1.90;;
66112;SDS011;52893;52.870;5.822;2023-02-03T04:56:04;8.52;;;1.65;;
66112;SDS011;52893;52.870;5.822;2023-02-03T04:58:32;9.77;;;0.95;;
66112;SDS011;52893;52.870;5.822;2023-02-03T05:01:04;7.82;;;1.27;;
66112;SDS011;52893;52.870;5.822;2023-02-03T05:03:32;5.80;;;1.08;;
66112;SDS011;52893;52.870;5.822;2023-02-03T05:05:59;8.32;;;1.30;;
66112;SDS011;52893;52.870;5.822;2023-02-03T05:08:28;6.75;;;0.80;;
66112;SDS011;52893;52.870;5.822;2023-02-03T05:10:56;6.93;;;0.82;;
66112;SDS011;52893;52.870;5.822;2023-02-03T05:13:24;5.28;;;1.55;;
66112;SDS011;52893;52.870;5.822;2023-02-03T05:15:51;10.15;;;1.75;;
66112;SDS011;52893;52.870;5.822;2023-02-03T05:18:18;3.47;;;0.65;;
66112;SDS011;52893;52.870;5.822;2023-02-03T05:20:45;13.15;;;1.42;;
66112;SDS011;52893;52.870;5.822;2023-02-03T05:23:13;4.20;;;1.02;;
66112;SDS011;52893;52.870;5.822;2023-02-03T05:25:41;5.93;;;1.10;;
66112;SDS011;52893;52.870;5.822;2023-02-03T05:28:10;10.23;;;1.35;;
66112;SDS011;52893;52.870;5.822;2023-02-03T05:30:38;10.02;;;1.27;;
66112;SDS011;52893;52.870;5.822;2023-02-03T05:33:05;7.03;;;1.00;;
66112;SDS011;52893;52.870;5.822;2023-02-03T05:35:32;9.65;;;1.65;;
66112;SDS011;52893;52.870;5.822;2023-02-03T05:37:59;11.15;;;1.63;;
66112;SDS011;52893;52.870;5.822;2023-02-03T05:40:27;16.35;;;1.95;;
66112;SDS011;52893;52.870;5.822;2023-02-03T05:43:13;5.95;;;1.35;;
66112;SDS011;52893;52.870;5.822;2023-02-03T05:45:43;8.98;;;1.42;;
66112;SDS011;52893;52.870;5.822;2023-02-03T05:48:11;3.08;;;0.95;;
66112;SDS011;52893;52.870;5.822;2023-02-03T05:50:38;5.63;;;1.13;;
66112;SDS011;52893;52.870;5.822;2023-02-03T05:53:08;9.57;;;1.70;;
66112;SDS011;52893;52.870;5.822;2023-02-03T05:55:35;7.40;;;0.93;;
66112;SDS011;52893;52.870;5.822;2023-02-03T05:58:03;12.38;;;1.60;;
66112;SDS011;52893;52.870;5.822;2023-02-03T06:00:32;9.60;;;1.60;;
66112;SDS011;52893;52.870;5.822;2023-02-03T06:03:00;15.50;;;1.85;;
66112;SDS011;52893;52.870;5.822;2023-02-03T06:05:28;9.70;;;1.30;;
66112;SDS011;52893;52.870;5.822;2023-02-03T06:07:56;8.15;;;1.20;;
66112;SDS011;52893;52.870;5.822;2023-02-03T06:10:24;8.95;;;1.15;;
66112;SDS011;52893;52.870;5.822;2023-02-03T06:12:51;5.00;;;1.10;;
66112;SDS011;52893;52.870;5.822;2023-02-03T06:15:18;6.65;;;1.17;;
66112;SDS011;52893;52.870;5.822;2023-02-03T06:17:47;13.35;;;1.40;;
66112;SDS011;52893;52.870;5.822;2023-02-03T06:20:16;3.08;;;1.40;;
66112;SDS011;52893;52.870;5.822;2023-02-03T06:22:44;7.25;;;1.52;;
66112;SDS011;52893;52.870;5.822;2023-02-03T06:25:12;6.05;;;1.17;;
66112;SDS011;52893;52.870;5.822;2023-02-03T06:27:39;15.70;;;2.83;;
66112;SDS011;52893;52.870;5.822;2023-02-03T06:30:07;8.27;;;1.30;;
66112;SDS011;52893;52.870;5.822;2023-02-03T06:32:36;12.23;;;1.75;;
66112;SDS011;52893;52.870;5.822;2023-02-03T06:35:04;10.38;;;1.55;;
66112;SDS011;52893;52.870;5.822;2023-02-03T06:37:32;6.32;;;1.00;;
66112;SDS011;52893;52.870;5.822;2023-02-03T06:40:02;17.77;;;2.15;;
66112;SDS011;52893;52.870;5.822;2023-02-03T06:42:29;8.57;;;1.45;;
66112;SDS011;52893;52.870;5.822;2023-02-03T06:44:56;6.32;;;1.67;;
66112;SDS011;52893;52.870;5.822;2023-02-03T06:47:24;9.00;;;2.25;;
66112;SDS011;52893;52.870;5.822;2023-02-03T06:49:51;7.38;;;1.95;;
66112;SDS011;52893;52.870;5.822;2023-02-03T06:52:20;17.67;;;1.85;;
66112;SDS011;52893;52.870;5.822;2023-02-03T06:54:47;9.30;;;1.77;;
66112;SDS011;52893;52.870;5.822;2023-02-03T06:57:14;7.65;;;1.38;;
66112;SDS011;52893;52.870;5.822;2023-02-03T06:59:42;10.15;;;1.17;;
66112;SDS011;52893;52.870;5.822;2023-02-03T07:02:09;4.13;;;0.90;;
66112;SDS011;52893;52.870;5.822;2023-02-03T07:04:37;13.30;;;1.60;;
66112;SDS011;52893;52.870;5.822;2023-02-03T07:07:04;11.30;;;1.25;;
66112;SDS011;52893;52.870;5.822;2023-02-03T07:09:33;12.27;;;1.60;;
66112;SDS011;52893;52.870;5.822;2023-02-03T07:12:00;2.80;;;1.48;;
66112;SDS011;52893;52.870;5.822;2023-02-03T07:14:27;6.70;;;1.42;;
66112;SDS011;52893;52.870;5.822;2023-02-03T07:16:55;9.57;;;1.65;;
66112;SDS011;52893;52.870;5.822;2023-02-03T07:19:23;2.80;;;1.17;;
66112;SDS011;52893;52.870;5.822;2023-02-03T07:21:50;3.35;;;0.80;;
66112;SDS011;52893;52.870;5.822;2023-02-03T07:24:17;7.18;;;1.55;;
66112;SDS011;52893;52.870;5.822;2023-02-03T07:26:46;5.35;;;1.38;;
66112;SDS011;52893;52.870;5.822;2023-02-03T07:29:13;7.38;;;1.20;;
66112;SDS011;52893;52.870;5.822;2023-02-03T07:31:40;8.70;;;1.25;;
66112;SDS011;52893;52.870;5.822;2023-02-03T07:34:08;16.95;;;2.70;;
66112;SDS011;52893;52.870;5.822;2023-02-03T07:36:35;7.95;;;1.00;;
66112;SDS011;52893;52.870;5.822;2023-02-03T07:39:02;7.63;;;1.48;;
66112;SDS011;52893;52.870;5.822;2023-02-03T07:41:29;5.80;;;0.98;;
66112;SDS011;52893;52.870;5.822;2023-02-03T07:43:58;12.32;;;1.88;;
66112;SDS011;52893;52.870;5.822;2023-02-03T07:46:25;10.38;;;1.25;;
66112;SDS011;52893;52.870;5.822;2023-02-03T07:48:52;5.80;;;1.25;;
66112;SDS011;52893;52.870;5.822;2023-02-03T07:51:19;5.32;;;1.55;;
66112;SDS011;52893;52.870;5.822;2023-02-03T07:53:47;11.10;;;1.17;;
66112;SDS011;52893;52.870;5.822;2023-02-03T07:56:14;15.43;;;1.95;;
66112;SDS011;52893;52.870;5.822;2023-02-03T07:58:41;9.52;;;1.48;;
66112;SDS011;52893;52.870;5.822;2023-02-03T08:01:10;9.45;;;1.98;;
66112;SDS011;52893;52.870;5.822;2023-02-03T08:03:39;4.65;;;1.40;;
66112;SDS011;52893;52.870;5.822;2023-02-03T08:06:06;9.05;;;0.90;;
66112;SDS011;52893;52.870;5.822;2023-02-03T08:08:33;5.10;;;1.50;;
66112;SDS011;52893;52.870;5.822;2023-02-03T08:11:01;5.28;;;1.50;;
66112;SDS011;52893;52.870;5.822;2023-02-03T08:13:28;5.18;;;1.08;;
66112;SDS011;52893;52.870;5.822;2023-02-03T08:15:55;13.48;;;1.85;;
66112;SDS011;52893;52.870;5.822;2023-02-03T08:18:24;10.07;;;1.25;;
66112;SDS011;52893;52.870;5.822;2023-02-03T08:20:51;3.10;;;1.27;;
66112;SDS011;52893;52.870;5.822;2023-02-03T08:23:18;14.15;;;1.70;;
66112;SDS011;52893;52.870;5.822;2023-02-03T08:25:48;9.15;;;1.30;;
66112;SDS011;52893;52.870;5.822;2023-02-03T08:28:16;8.90;;;1.60;;
66112;SDS011;52893;52.870;5.822;2023-02-03T08:30:43;14.40;;;1.40;;
66112;SDS011;52893;52.870;5.822;2023-02-03T08:33:11;5.40;;;1.27;;
66112;SDS011;52893;52.870;5.822;2023-02-03T08:35:40;9.40;;;1.25;;
66112;SDS011;52893;52.870;5.822;2023-02-03T08:38:11;5.30;;;1.40;;
66112;SDS011;52893;52.870;5.822;2023-02-03T08:40:38;5.60;;;1.13;;
66112;SDS011;52893;52.870;5.822;2023-02-03T08:43:05;8.13;;;1.17;;
66112;SDS011;52893;52.870;5.822;2023-02-03T08:45:33;8.32;;;1.60;;
66112;SDS011;52893;52.870;5.822;2023-02-03T08:48:00;13.30;;;2.33;;
66112;SDS011;52893;52.870;5.822;2023-02-03T08:50:27;4.97;;;1.17;;
66112;SDS011;52893;52.870;5.822;2023-02-03T08:52:56;15.55;;;1.73;;
66112;SDS011;52893;52.870;5.822;2023-02-03T08:55:23;6.28;;;1.58;;
66112;SDS011;52893;52.870;5.822;2023-02-03T08:57:50;10.18;;;2.30;;
66112;SDS011;52893;52.870;5.822;2023-02-03T09:00:18;3.95;;;1.25;;
66112;SDS011;52893;52.870;5.822;2023-02-03T09:02:46;8.10;;;1.58;;
66112;SDS011;52893;52.870;5.822;2023-02-03T09:05:13;8.25;;;1.52;;
66112;SDS011;52893;52.870;5.822;2023-02-03T09:07:42;8.20;;;1.45;;
66112;SDS011;52893;52.870;5.822;2023-02-03T09:10:11;8.55;;;1.75;;
66112;SDS011;52893;52.870;5.822;2023-02-03T09:12:38;15.32;;;1.60;;
66112;SDS011;52893;52.870;5.822;2023-02-03T09:15:06;8.02;;;1.90;;
66112;SDS011;52893;52.870;5.822;2023-02-03T09:17:33;9.77;;;1.33;;
66112;SDS011;52893;52.870;5.822;2023-02-03T09:20:01;5.38;;;1.50;;
66112;SDS011;52893;52.870;5.822;2023-02-03T09:22:28;6.15;;;1.38;;
66112;SDS011;52893;52.870;5.822;2023-02-03T09:24:55;11.55;;;1.48;;
66112;SDS011;52893;52.870;5.822;2023-02-03T09:27:23;11.63;;;1.80;;
66112;SDS011;52893;52.870;5.822;2023-02-03T09:29:51;6.75;;;2.17;;
66112;SDS011;52893;52.870;5.822;2023-02-03T09:32:18;10.63;;;1.30;;
66112;SDS011;52893;52.870;5.822;2023-02-03T09:34:45;7.63;;;1.38;;
66112;SDS011;52893;52.870;5.822;2023-02-03T09:37:12;15.63;;;2.60;;
66112;SDS011;52893;52.870;5.822;2023-02-03T09:39:40;11.05;;;2.03;;
66112;SDS011;52893;52.870;5.822;2023-02-03T09:42:15;3.65;;;1.05;;
66112;SDS011;52893;52.870;5.822;2023-02-03T09:44:53;12.07;;;2.13;;
66112;SDS011;52893;52.870;5.822;2023-02-03T09:47:31;14.30;;;2.20;;
66112;SDS011;52893;52.870;5.822;2023-02-03T09:50:01;12.30;;;2.28;;
66112;SDS011;52893;52.870;5.822;2023-02-03T09:52:31;10.52;;;1.92;;
66112;SDS011;52893;52.870;5.822;2023-02-03T09:55:02;14.02;;;2.58;;
66112;SDS011;52893;52.870;5.822;2023-02-03T09:57:34;9.68;;;2.22;;
66112;SDS011;52893;52.870;5.822;2023-02-03T10:00:12;10.30;;;1.73;;
66112;SDS011;52893;52.870;5.822;2023-02-03T10:02:47;14.05;;;1.75;;
66112;SDS011;52893;52.870;5.822;2023-02-03T10:05:21;8.50;;;1.50;;
66112;SDS011;52893;52.870;5.822;2023-02-03T10:07:57;18.92;;;2.63;;
66112;SDS011;52893;52.870;5.822;2023-02-03T10:10:34;19.65;;;3.13;;
66112;SDS011;52893;52.870;5.822;2023-02-03T10:13:12;15.93;;;1.98;;
66112;SDS011;52893;52.870;5.822;2023-02-03T10:18:53;28.75;;;2.50;;
66112;SDS011;52893;52.870;5.822;2023-02-03T10:21:27;17.77;;;2.38;;
66112;SDS011;52893;52.870;5.822;2023-02-03T10:24:00;19.63;;;2.95;;
66112;SDS011;52893;52.870;5.822;2023-02-03T10:26:32;17.70;;;2.65;;
66112;SDS011;52893;52.870;5.822;2023-02-03T10:29:01;13.88;;;2.70;;
66112;SDS011;52893;52.870;5.822;2023-02-03T10:31:35;11.55;;;1.73;;
66112;SDS011;52893;52.870;5.822;2023-02-03T10:34:08;10.02;;;1.70;;
66112;SDS011;52893;52.870;5.822;2023-02-03T10:36:41;13.20;;;2.03;;
66112;SDS011;52893;52.870;5.822;2023-02-03T10:39:16;5.90;;;1.40;;
66112;SDS011;52893;52.870;5.822;2023-02-03T10:41:50;14.73;;;1.50;;
66112;SDS011;52893;52.870;5.822;2023-02-03T10:44:17;19.95;;;2.70;;
66112;SDS011;52893;52.870;5.822;2023-02-03T10:46:46;11.60;;;2.17;;
66112;SDS011;52893;52.870;5.822;2023-02-03T10:49:13;16.80;;;3.13;;
66112;SDS011;52893;52.870;5.822;2023-02-03T10:51:42;20.80;;;2.15;;
66112;SDS011;52893;52.870;5.822;2023-02-03T10:54:25;9.73;;;1.90;;
66112;SDS011;52893;52.870;5.822;2023-02-03T10:56:56;11.70;;;2.22;;
66112;SDS011;52893;52.870;5.822;2023-02-03T10:59:30;7.88;;;1.70;;
66112;SDS011;52893;52.870;5.822;2023-02-03T11:02:01;13.70;;;2.65;;
66112;SDS011;52893;52.870;5.822;2023-02-03T11:04:34;17.15;;;2.58;;
66112;SDS011;52893;52.870;5.822;2023-02-03T11:07:02;20.13;;;2.38;;
66112;SDS011;52893;52.870;5.822;2023-02-03T11:09:32;7.68;;;1.63;;
66112;SDS011;52893;52.870;5.822;2023-02-03T11:12:06;19.55;;;4.07;;
66112;SDS011;52893;52.870;5.822;2023-02-03T11:14:38;20.42;;;2.10;;
66112;SDS011;52893;52.870;5.822;2023-02-03T11:17:13;10.77;;;1.85;;
66112;SDS011;52893;52.870;5.822;2023-02-03T11:19:43;12.20;;;2.97;;
66112;SDS011;52893;52.870;5.822;2023-02-03T11:22:12;26.23;;;3.55;;
66112;SDS011;52893;52.870;5.822;2023-02-03T11:24:51;16.55;;;2.78;;
66112;SDS011;52893;52.870;5.822;2023-02-03T11:27:20;21.02;;;2.40;;
66112;SDS011;52893;52.870;5.822;2023-02-03T11:29:50;10.07;;;2.05;;
66112;SDS011;52893;52.870;5.822;2023-02-03T11:32:24;5.67;;;2.20;;
66112;SDS011;52893;52.870;5.822;2023-02-03T11:34:57;11.25;;;1.88;;
66112;SDS011;52893;52.870;5.822;2023-02-03T11:37:27;9.75;;;1.73;;
66112;SDS011;52893;52.870;5.822;2023-02-03T11:40:11;14.90;;;2.30;;
66112;SDS011;52893;52.870;5.822;2023-02-03T11:42:58;11.93;;;2.08;;
66112;SDS011;52893;52.870;5.822;2023-02-03T11:45:27;9.98;;;1.83;;
66112;SDS011;52893;52.870;5.822;2023-02-03T11:47:58;18.27;;;2.92;;
66112;SDS011;52893;52.870;5.822;2023-02-03T11:50:28;21.65;;;3.00;;
66112;SDS011;52893;52.870;5.822;2023-02-03T11:53:09;15.73;;;2.55;;
66112;SDS011;52893;52.870;5.822;2023-02-03T11:55:49;9.50;;;2.00;;
66112;SDS011;52893;52.870;5.822;2023-02-03T11:58:34;15.02;;;2.30;;
66112;SDS011;52893;52.870;5.822;2023-02-03T12:01:42;14.27;;;2.72;;
66112;SDS011;52893;52.870;5.822;2023-02-03T12:07:22;22.55;;;2.85;;
66112;SDS011;52893;52.870;5.822;2023-02-03T12:10:01;20.27;;;3.53;;
66112;SDS011;52893;52.870;5.822;2023-02-03T12:12:41;12.45;;;2.22;;
66112;SDS011;52893;52.870;5.822;2023-02-03T12:18:20;13.82;;;2.35;;
66112;SDS011;52893;52.870;5.822;2023-02-03T12:21:03;26.92;;;3.25;;
66112;SDS011;52893;52.870;5.822;2023-02-03T12:23:43;9.35;;;1.95;;
66112;SDS011;52893;52.870;5.822;2023-02-03T12:26:17;19.48;;;3.17;;
66112;SDS011;52893;52.870;5.822;2023-02-03T12:28:50;23.25;;;3.50;;
66112;SDS011;52893;52.870;5.822;2023-02-03T12:31:25;16.15;;;2.00;;
66112;SDS011;52893;52.870;5.822;2023-02-03T12:33:59;30.90;;;3.75;;
66112;SDS011;52893;52.870;5.822;2023-02-03T12:36:36;18.42;;;2.80;;
66112;SDS011;52893;52.870;5.822;2023-02-03T12:39:07;14.82;;;2.13;;
66112;SDS011;52893;52.870;5.822;2023-02-03T12:41:42;22.17;;;3.08;;
66112;SDS011;52893;52.870;5.822;2023-02-03T12:44:16;45.80;;;4.35;;
66112;SDS011;52893;52.870;5.822;2023-02-03T12:46:48;17.88;;;2.45;;
66112;SDS011;52893;52.870;5.822;2023-02-03T12:49:24;35.03;;;4.03;;
66112;SDS011;52893;52.870;5.822;2023-02-03T12:51:59;23.33;;;2.72;;
66112;SDS011;52893;52.870;5.822;2023-02-03T12:54:33;25.83;;;2.55;;
66112;SDS011;52893;52.870;5.822;2023-02-03T12:57:09;38.65;;;3.80;;
66112;SDS011;52893;52.870;5.822;2023-02-03T12:59:54;21.75;;;3.85;;
66112;SDS011;52893;52.870;5.822;2023-02-03T13:02:29;18.83;;;2.80;;
66112;SDS011;52893;52.870;5.822;2023-02-03T13:05:04;31.42;;;4.18;;
66112;SDS011;52893;52.870;5.822;2023-02-03T13:07:42;39.47;;;4.57;;
66112;SDS011;52893;52.870;5.822;2023-02-03T13:10:15;22.55;;;3.15;;
66112;SDS011;52893;52.870;5.822;2023-02-03T13:12:48;34.30;;;3.78;;
66112;SDS011;52893;52.870;5.822;2023-02-03T13:15:21;38.22;;;4.47;;
66112;SDS011;52893;52.870;5.822;2023-02-03T13:17:53;28.13;;;4.10;;
66112;SDS011;52893;52.870;5.822;2023-02-03T13:20:24;17.80;;;3.03;;
66112;SDS011;52893;52.870;5.822;2023-02-03T13:22:55;28.42;;;3.35;;
66112;SDS011;52893;52.870;5.822;2023-02-03T13:25:23;28.10;;;2.63;;
66112;SDS011;52893;52.870;5.822;2023-02-03T13:27:56;30.10;;;3.67;;
66112;SDS011;52893;52.870;5.822;2023-02-03T13:33:42;39.78;;;3.83;;
66112;SDS011;52893;52.870;5.822;2023-02-03T13:36:33;9.38;;;2.17;;
66112;SDS011;52893;52.870;5.822;2023-02-03T13:39:21;27.25;;;3.70;;
66112;SDS011;52893;52.870;5.822;2023-02-03T13:42:16;22.65;;;2.60;;
66112;SDS011;52893;52.870;5.822;2023-02-03T13:44:48;19.30;;;3.65;;
66112;SDS011;52893;52.870;5.822;2023-02-03T13:47:20;17.20;;;3.22;;
66112;SDS011;52893;52.870;5.822;2023-02-03T13:49:51;17.83;;;3.20;;
66112;SDS011;52893;52.870;5.822;2023-02-03T13:52:28;25.90;;;4.30;;
66112;SDS011;52893;52.870;5.822;2023-02-03T13:55:01;18.13;;;1.98;;
66112;SDS011;52893;52.870;5.822;2023-02-03T13:57:32;28.17;;;3.38;;
66112;SDS011;52893;52.870;5.822;2023-02-03T14:00:02;16.77;;;2.72;;
66112;SDS011;52893;52.870;5.822;2023-02-03T14:02:41;24.45;;;2.88;;
66112;SDS011;52893;52.870;5.822;2023-02-03T14:20:37;10.00;;;1.92;;
66112;SDS011;52893;52.870;5.822;2023-02-03T14:23:12;24.83;;;3.00;;
66112;SDS011;52893;52.870;5.822;2023-02-03T14:25:43;25.13;;;2.58;;
66112;SDS011;52893;52.870;5.822;2023-02-03T14:28:15;22.65;;;2.80;;
66112;SDS011;52893;52.870;5.822;2023-02-03T14:30:59;23.60;;;2.70;;
66112;SDS011;52893;52.870;5.822;2023-02-03T14:36:29;15.10;;;2.47;;
66112;SDS011;52893;52.870;5.822;2023-02-03T14:39:00;35.08;;;4.25;;
66112;SDS011;52893;52.870;5.822;2023-02-03T14:41:36;34.58;;;4.57;;
66112;SDS011;52893;52.870;5.822;2023-02-03T14:44:17;27.65;;;3.97;;
66112;SDS011;52893;52.870;5.822;2023-02-03T14:46:58;37.75;;;4.63;;
66112;SDS011;52893;52.870;5.822;2023-02-03T14:49:48;16.52;;;2.38;;
66112;SDS011;52893;52.870;5.822;2023-02-03T14:52:33;27.33;;;3.30;;
66112;SDS011;52893;52.870;5.822;2023-02-03T14:55:33;37.88;;;4.22;;
66112;SDS011;52893;52.870;5.822;2023-02-03T14:58:13;26.02;;;3.30;;
66112;SDS011;52893;52.870;5.822;2023-02-03T15:00:48;27.75;;;3.85;;
66112;SDS011;52893;52.870;5.822;2023-02-03T15:03:21;26.05;;;3.28;;
66112;SDS011;52893;52.870;5.822;2023-02-03T15:05:51;33.60;;;3.35;;
66112;SDS011;52893;52.870;5.822;2023-02-03T15:16:48;21.65;;;2.83;;
66112;SDS011;52893;52.870;5.822;2023-02-03T15:19:21;16.88;;;2.92;;
66112;SDS011;52893;52.870;5.822;2023-02-03T15:21:50;22.13;;;2.85;;
66112;SDS011;52893;52.870;5.822;2023-02-03T15:24:18;37.63;;;4.55;;
66112;SDS011;52893;52.870;5.822;2023-02-03T15:26:49;34.13;;;4.53;;
66112;SDS011;52893;52.870;5.822;2023-02-03T15:29:18;30.00;;;4.30;;
66112;SDS011;52893;52.870;5.822;2023-02-03T15:31:55;35.83;;;4.80;;
66112;SDS011;52893;52.870;5.822;2023-02-03T15:34:29;30.38;;;3.53;;
66112;SDS011;52893;52.870;5.822;2023-02-03T15:37:01;21.67;;;3.53;;
66112;SDS011;52893;52.870;5.822;2023-02-03T15:39:38;23.42;;;2.78;;
66112;SDS011;52893;52.870;5.822;2023-02-03T15:42:12;18.00;;;2.78;;
66112;SDS011;52893;52.870;5.822;2023-02-03T15:44:49;22.73;;;3.83;;
66112;SDS011;52893;52.870;5.822;2023-02-03T15:47:25;20.17;;;2.53;;